sensor_id;sensor_type;location;lat;lon;timestamp;P1;durP1;ratioP1;P2;durP2;ratioP2
62401;SDS011;48440;51.224;22.506;2023-06-22T00:00:55;12.63;;;11.35;;
62401;SDS011;48440;51.224;22.506;2023-06-22T00:03:21;13.38;;;11.65;;
62401;SDS011;48440;51.224;22.506;2023-06-22T00:05:48;12.75;;;11.35;;
62401;SDS011;48440;51.224;22.506;2023-06-22T00:08:14;13.52;;;11.52;;
62401;SDS011;48440;51.224;22.506;2023-06-22T00:10:40;14.48;;;11.43;;
62401;SDS011;48440;51.224;22.506;2023-06-22T00:13:18;17.55;;;11.23;;
62401;SDS011;48440;51.224;22.506;2023-06-22T00:15:44;13.35;;;11.25;;
62401;SDS011;48440;51.224;22.506;2023-06-22T00:18:12;15.25;;;12.20;;
62401;SDS011;48440;51.224;22.506;2023-06-22T00:20:38;15.57;;;11.60;;
62401;SDS011;48440;51.224;22.506;2023-06-22T00:23:04;15.35;;;11.35;;
62401;SDS011;48440;51.224;22.506;2023-06-22T00:25:37;13.20;;;11.82;;
62401;SDS011;48440;51.224;22.506;2023-06-22T00:28:03;15.38;;;11.80;;
62401;SDS011;48440;51.224;22.506;2023-06-22T00:30:30;14.93;;;12.05;;
62401;SDS011;48440;51.224;22.506;2023-06-22T00:32:55;15.85;;;12.23;;
62401;SDS011;48440;51.224;22.506;2023-06-22T00:35:21;15.30;;;11.98;;
62401;SDS011;48440;51.224;22.506;2023-06-22T00:37:46;15.40;;;12.98;;
62401;SDS011;48440;51.224;22.506;2023-06-22T00:40:12;14.82;;;12.70;;
62401;SDS011;48440;51.224;22.506;2023-06-22T00:42:39;15.60;;;12.57;;
62401;SDS011;48440;51.224;22.506;2023-06-22T00:45:06;17.95;;;13.68;;
62401;SDS011;48440;51.224;22.506;2023-06-22T00:47:32;16.08;;;12.40;;
62401;SDS011;48440;51.224;22.506;2023-06-22T00:49:59;16.00;;;11.93;;
62401;SDS011;48440;51.224;22.506;2023-06-22T00:52:25;14.15;;;12.65;;
62401;SDS011;48440;51.224;22.506;2023-06-22T00:54:54;16.17;;;12.48;;
62401;SDS011;48440;51.224;22.506;2023-06-22T00:57:20;15.63;;;12.55;;
62401;SDS011;48440;51.224;22.506;2023-06-22T00:59:47;14.15;;;12.15;;
62401;SDS011;48440;51.224;22.506;2023-06-22T01:02:13;16.95;;;13.70;;
62401;SDS011;48440;51.224;22.506;2023-06-22T01:04:39;17.63;;;13.45;;
62401;SDS011;48440;51.224;22.506;2023-06-22T01:09:57;15.93;;;13.05;;
62401;SDS011;48440;51.224;22.506;2023-06-22T01:12:23;15.10;;;13.45;;
62401;SDS011;48440;51.224;22.506;2023-06-22T01:14:56;14.40;;;12.10;;
62401;SDS011;48440;51.224;22.506;2023-06-22T01:17:27;16.15;;;13.38;;
62401;SDS011;48440;51.224;22.506;2023-06-22T01:19:54;16.73;;;13.60;;
62401;SDS011;48440;51.224;22.506;2023-06-22T01:22:22;15.73;;;13.43;;
62401;SDS011;48440;51.224;22.506;2023-06-22T01:30:28;18.02;;;13.35;;
62401;SDS011;48440;51.224;22.506;2023-06-22T01:32:56;18.77;;;14.43;;
62401;SDS011;48440;51.224;22.506;2023-06-22T01:35:23;18.45;;;13.98;;
62401;SDS011;48440;51.224;22.506;2023-06-22T01:37:50;19.75;;;13.73;;
62401;SDS011;48440;51.224;22.506;2023-06-22T01:40:15;16.77;;;13.73;;
62401;SDS011;48440;51.224;22.506;2023-06-22T01:42:42;17.13;;;13.93;;
62401;SDS011;48440;51.224;22.506;2023-06-22T01:45:09;17.30;;;14.50;;
62401;SDS011;48440;51.224;22.506;2023-06-22T01:47:36;17.42;;;14.52;;
62401;SDS011;48440;51.224;22.506;2023-06-22T01:50:02;22.33;;;15.10;;
62401;SDS011;48440;51.224;22.506;2023-06-22T01:52:28;20.55;;;14.73;;
62401;SDS011;48440;51.224;22.506;2023-06-22T01:54:53;18.02;;;14.35;;
62401;SDS011;48440;51.224;22.506;2023-06-22T01:57:19;19.33;;;14.05;;
62401;SDS011;48440;51.224;22.506;2023-06-22T02:02:40;18.75;;;14.75;;
62401;SDS011;48440;51.224;22.506;2023-06-22T02:05:17;17.75;;;14.27;;
62401;SDS011;48440;51.224;22.506;2023-06-22T02:07:45;17.95;;;14.80;;
62401;SDS011;48440;51.224;22.506;2023-06-22T02:10:15;20.55;;;15.00;;
62401;SDS011;48440;51.224;22.506;2023-06-22T02:12:44;18.38;;;14.35;;
62401;SDS011;48440;51.224;22.506;2023-06-22T02:15:11;23.10;;;15.75;;
62401;SDS011;48440;51.224;22.506;2023-06-22T02:17:37;16.98;;;15.00;;
62401;SDS011;48440;51.224;22.506;2023-06-22T02:20:03;21.70;;;15.02;;
62401;SDS011;48440;51.224;22.506;2023-06-22T02:22:32;22.65;;;15.00;;
62401;SDS011;48440;51.224;22.506;2023-06-22T02:24:58;22.17;;;14.95;;
62401;SDS011;48440;51.224;22.506;2023-06-22T02:27:23;19.77;;;15.00;;
62401;SDS011;48440;51.224;22.506;2023-06-22T02:29:49;19.98;;;14.77;;
62401;SDS011;48440;51.224;22.506;2023-06-22T02:32:17;22.48;;;15.38;;
62401;SDS011;48440;51.224;22.506;2023-06-22T02:34:43;18.45;;;15.32;;
62401;SDS011;48440;51.224;22.506;2023-06-22T02:37:13;20.48;;;15.63;;
62401;SDS011;48440;51.224;22.506;2023-06-22T02:39:42;18.90;;;15.25;;
62401;SDS011;48440;51.224;22.506;2023-06-22T02:42:08;22.80;;;15.95;;
62401;SDS011;48440;51.224;22.506;2023-06-22T02:44:35;21.60;;;15.93;;
62401;SDS011;48440;51.224;22.506;2023-06-22T02:47:01;21.27;;;15.80;;
62401;SDS011;48440;51.224;22.506;2023-06-22T02:49:27;20.60;;;16.17;;
62401;SDS011;48440;51.224;22.506;2023-06-22T02:51:52;22.83;;;16.67;;
62401;SDS011;48440;51.224;22.506;2023-06-22T02:54:18;19.35;;;16.45;;
62401;SDS011;48440;51.224;22.506;2023-06-22T02:56:44;20.52;;;16.58;;
62401;SDS011;48440;51.224;22.506;2023-06-22T02:59:10;23.52;;;16.88;;
62401;SDS011;48440;51.224;22.506;2023-06-22T03:01:36;22.52;;;17.45;;
62401;SDS011;48440;51.224;22.506;2023-06-22T03:04:08;20.63;;;16.50;;
62401;SDS011;48440;51.224;22.506;2023-06-22T03:06:34;25.73;;;16.83;;
62401;SDS011;48440;51.224;22.506;2023-06-22T03:09:01;22.60;;;17.45;;
62401;SDS011;48440;51.224;22.506;2023-06-22T03:11:29;27.63;;;18.67;;
62401;SDS011;48440;51.224;22.506;2023-06-22T03:13:58;22.02;;;18.25;;
62401;SDS011;48440;51.224;22.506;2023-06-22T03:16:24;22.85;;;17.45;;
62401;SDS011;48440;51.224;22.506;2023-06-22T03:18:49;21.73;;;16.73;;
62401;SDS011;48440;51.224;22.506;2023-06-22T03:21:15;27.27;;;17.10;;
62401;SDS011;48440;51.224;22.506;2023-06-22T03:23:41;24.55;;;17.25;;
62401;SDS011;48440;51.224;22.506;2023-06-22T03:26:10;25.20;;;17.77;;
62401;SDS011;48440;51.224;22.506;2023-06-22T03:28:37;26.23;;;17.95;;
62401;SDS011;48440;51.224;22.506;2023-06-22T03:31:03;23.55;;;17.80;;
62401;SDS011;48440;51.224;22.506;2023-06-22T03:33:31;25.08;;;18.13;;
62401;SDS011;48440;51.224;22.506;2023-06-22T03:35:57;25.77;;;18.30;;
62401;SDS011;48440;51.224;22.506;2023-06-22T03:38:22;28.45;;;18.10;;
62401;SDS011;48440;51.224;22.506;2023-06-22T03:40:48;27.70;;;18.00;;
62401;SDS011;48440;51.224;22.506;2023-06-22T03:43:13;24.05;;;18.33;;
62401;SDS011;48440;51.224;22.506;2023-06-22T03:45:39;25.63;;;19.00;;
62401;SDS011;48440;51.224;22.506;2023-06-22T03:48:05;28.95;;;18.42;;
62401;SDS011;48440;51.224;22.506;2023-06-22T03:50:31;26.17;;;18.88;;
62401;SDS011;48440;51.224;22.506;2023-06-22T03:52:56;27.38;;;18.85;;
62401;SDS011;48440;51.224;22.506;2023-06-22T03:55:22;27.92;;;19.23;;
62401;SDS011;48440;51.224;22.506;2023-06-22T03:57:47;29.25;;;20.13;;
62401;SDS011;48440;51.224;22.506;2023-06-22T04:00:13;28.00;;;19.77;;
62401;SDS011;48440;51.224;22.506;2023-06-22T04:02:40;26.52;;;20.25;;
62401;SDS011;48440;51.224;22.506;2023-06-22T04:05:07;29.38;;;19.90;;
62401;SDS011;48440;51.224;22.506;2023-06-22T04:07:34;29.10;;;20.38;;
62401;SDS011;48440;51.224;22.506;2023-06-22T04:10:02;27.95;;;20.92;;
62401;SDS011;48440;51.224;22.506;2023-06-22T04:12:29;28.50;;;20.27;;
62401;SDS011;48440;51.224;22.506;2023-06-22T04:14:54;28.15;;;20.63;;
62401;SDS011;48440;51.224;22.506;2023-06-22T04:17:20;33.15;;;21.73;;
62401;SDS011;48440;51.224;22.506;2023-06-22T04:19:45;31.27;;;21.23;;
62401;SDS011;48440;51.224;22.506;2023-06-22T04:22:11;26.33;;;21.13;;
62401;SDS011;48440;51.224;22.506;2023-06-22T04:24:37;28.98;;;20.73;;
62401;SDS011;48440;51.224;22.506;2023-06-22T04:27:02;27.25;;;20.95;;
62401;SDS011;48440;51.224;22.506;2023-06-22T04:29:34;30.80;;;20.75;;
62401;SDS011;48440;51.224;22.506;2023-06-22T04:32:00;33.97;;;21.70;;
62401;SDS011;48440;51.224;22.506;2023-06-22T04:34:30;32.15;;;21.42;;
62401;SDS011;48440;51.224;22.506;2023-06-22T04:36:56;26.90;;;20.33;;
62401;SDS011;48440;51.224;22.506;2023-06-22T04:39:21;28.98;;;19.70;;
62401;SDS011;48440;51.224;22.506;2023-06-22T04:41:47;30.17;;;20.35;;
62401;SDS011;48440;51.224;22.506;2023-06-22T04:44:16;34.58;;;21.10;;
62401;SDS011;48440;51.224;22.506;2023-06-22T04:46:51;29.83;;;21.65;;
62401;SDS011;48440;51.224;22.506;2023-06-22T04:49:33;33.17;;;22.20;;
62401;SDS011;48440;51.224;22.506;2023-06-22T04:52:01;29.63;;;21.45;;
62401;SDS011;48440;51.224;22.506;2023-06-22T04:54:29;28.50;;;20.90;;
62401;SDS011;48440;51.224;22.506;2023-06-22T04:56:54;31.88;;;20.42;;
62401;SDS011;48440;51.224;22.506;2023-06-22T04:59:23;30.45;;;20.95;;
62401;SDS011;48440;51.224;22.506;2023-06-22T05:01:53;30.83;;;20.52;;
62401;SDS011;48440;51.224;22.506;2023-06-22T05:04:20;32.60;;;20.00;;
62401;SDS011;48440;51.224;22.506;2023-06-22T05:06:46;30.10;;;21.05;;
62401;SDS011;48440;51.224;22.506;2023-06-22T05:09:11;31.40;;;20.30;;
62401;SDS011;48440;51.224;22.506;2023-06-22T05:11:37;31.75;;;20.77;;
62401;SDS011;48440;51.224;22.506;2023-06-22T05:14:02;25.35;;;20.02;;
62401;SDS011;48440;51.224;22.506;2023-06-22T05:16:28;31.85;;;20.58;;
62401;SDS011;48440;51.224;22.506;2023-06-22T05:18:54;27.52;;;19.15;;
62401;SDS011;48440;51.224;22.506;2023-06-22T05:21:22;28.98;;;19.77;;
62401;SDS011;48440;51.224;22.506;2023-06-22T05:23:49;26.17;;;18.13;;
62401;SDS011;48440;51.224;22.506;2023-06-22T05:26:15;30.95;;;19.23;;
62401;SDS011;48440;51.224;22.506;2023-06-22T05:28:41;24.85;;;19.08;;
62401;SDS011;48440;51.224;22.506;2023-06-22T05:31:06;26.88;;;19.38;;
62401;SDS011;48440;51.224;22.506;2023-06-22T05:33:32;28.85;;;20.38;;
62401;SDS011;48440;51.224;22.506;2023-06-22T05:35:58;28.42;;;20.23;;
62401;SDS011;48440;51.224;22.506;2023-06-22T05:38:23;27.63;;;19.88;;
62401;SDS011;48440;51.224;22.506;2023-06-22T05:40:49;27.23;;;20.20;;
62401;SDS011;48440;51.224;22.506;2023-06-22T05:43:17;27.65;;;20.08;;
62401;SDS011;48440;51.224;22.506;2023-06-22T05:45:43;27.60;;;19.02;;
62401;SDS011;48440;51.224;22.506;2023-06-22T05:48:09;24.33;;;18.42;;
62401;SDS011;48440;51.224;22.506;2023-06-22T05:50:36;23.10;;;17.92;;
62401;SDS011;48440;51.224;22.506;2023-06-22T05:53:01;25.83;;;18.65;;
62401;SDS011;48440;51.224;22.506;2023-06-22T05:55:27;31.27;;;21.00;;
62401;SDS011;48440;51.224;22.506;2023-06-22T05:57:52;30.55;;;19.70;;
62401;SDS011;48440;51.224;22.506;2023-06-22T06:00:18;32.83;;;21.25;;
62401;SDS011;48440;51.224;22.506;2023-06-22T06:02:47;27.92;;;19.45;;
62401;SDS011;48440;51.224;22.506;2023-06-22T06:05:14;29.48;;;21.40;;
62401;SDS011;48440;51.224;22.506;2023-06-22T06:07:40;30.55;;;20.85;;
62401;SDS011;48440;51.224;22.506;2023-06-22T06:10:06;26.33;;;19.83;;
62401;SDS011;48440;51.224;22.506;2023-06-22T06:12:32;27.67;;;19.55;;
62401;SDS011;48440;51.224;22.506;2023-06-22T06:14:57;25.10;;;18.67;;
62401;SDS011;48440;51.224;22.506;2023-06-22T06:17:23;28.40;;;18.38;;
62401;SDS011;48440;51.224;22.506;2023-06-22T06:19:48;30.45;;;19.13;;
62401;SDS011;48440;51.224;22.506;2023-06-22T06:22:14;29.67;;;19.35;;
62401;SDS011;48440;51.224;22.506;2023-06-22T06:24:39;25.70;;;18.63;;
62401;SDS011;48440;51.224;22.506;2023-06-22T06:27:04;24.67;;;17.70;;
62401;SDS011;48440;51.224;22.506;2023-06-22T06:29:31;25.00;;;18.92;;
62401;SDS011;48440;51.224;22.506;2023-06-22T06:32:00;29.15;;;18.58;;
62401;SDS011;48440;51.224;22.506;2023-06-22T06:34:25;33.58;;;18.67;;
62401;SDS011;48440;51.224;22.506;2023-06-22T06:36:51;27.05;;;18.83;;
62401;SDS011;48440;51.224;22.506;2023-06-22T06:39:16;26.00;;;19.63;;
62401;SDS011;48440;51.224;22.506;2023-06-22T06:41:41;25.13;;;18.77;;
62401;SDS011;48440;51.224;22.506;2023-06-22T06:44:07;24.80;;;17.55;;
62401;SDS011;48440;51.224;22.506;2023-06-22T06:46:32;21.15;;;16.00;;
62401;SDS011;48440;51.224;22.506;2023-06-22T06:48:58;25.23;;;17.40;;
62401;SDS011;48440;51.224;22.506;2023-06-22T06:51:24;27.05;;;17.63;;
62401;SDS011;48440;51.224;22.506;2023-06-22T06:53:49;27.65;;;18.55;;
62401;SDS011;48440;51.224;22.506;2023-06-22T06:56:15;29.45;;;19.50;;
62401;SDS011;48440;51.224;22.506;2023-06-22T06:58:41;27.23;;;19.02;;
62401;SDS011;48440;51.224;22.506;2023-06-22T07:01:11;27.50;;;19.73;;
62401;SDS011;48440;51.224;22.506;2023-06-22T07:03:37;26.10;;;19.40;;
62401;SDS011;48440;51.224;22.506;2023-06-22T07:06:02;25.35;;;18.73;;
62401;SDS011;48440;51.224;22.506;2023-06-22T07:08:28;28.40;;;19.65;;
62401;SDS011;48440;51.224;22.506;2023-06-22T07:10:53;25.17;;;18.45;;
62401;SDS011;48440;51.224;22.506;2023-06-22T07:13:19;29.90;;;18.95;;
62401;SDS011;48440;51.224;22.506;2023-06-22T07:15:45;25.45;;;19.20;;
62401;SDS011;48440;51.224;22.506;2023-06-22T07:18:10;27.35;;;19.33;;
62401;SDS011;48440;51.224;22.506;2023-06-22T07:20:36;27.38;;;20.23;;
62401;SDS011;48440;51.224;22.506;2023-06-22T07:23:02;25.83;;;19.85;;
62401;SDS011;48440;51.224;22.506;2023-06-22T07:25:27;25.23;;;20.25;;
62401;SDS011;48440;51.224;22.506;2023-06-22T07:30:23;28.38;;;21.20;;
62401;SDS011;48440;51.224;22.506;2023-06-22T07:32:48;25.17;;;20.42;;
62401;SDS011;48440;51.224;22.506;2023-06-22T07:35:14;30.55;;;21.80;;
62401;SDS011;48440;51.224;22.506;2023-06-22T07:37:41;26.63;;;20.77;;
62401;SDS011;48440;51.224;22.506;2023-06-22T07:40:07;32.03;;;22.58;;
62401;SDS011;48440;51.224;22.506;2023-06-22T07:42:33;25.80;;;20.20;;
62401;SDS011;48440;51.224;22.506;2023-06-22T07:44:59;28.88;;;21.98;;
62401;SDS011;48440;51.224;22.506;2023-06-22T07:47:25;29.25;;;22.00;;
62401;SDS011;48440;51.224;22.506;2023-06-22T07:49:53;36.35;;;25.25;;
62401;SDS011;48440;51.224;22.506;2023-06-22T07:52:20;29.83;;;24.35;;
62401;SDS011;48440;51.224;22.506;2023-06-22T07:54:46;26.52;;;20.90;;
62401;SDS011;48440;51.224;22.506;2023-06-22T07:57:11;36.00;;;25.27;;
62401;SDS011;48440;51.224;22.506;2023-06-22T07:59:37;33.85;;;25.08;;
62401;SDS011;48440;51.224;22.506;2023-06-22T08:02:03;38.72;;;25.85;;
62401;SDS011;48440;51.224;22.506;2023-06-22T08:04:29;36.55;;;27.95;;
62401;SDS011;48440;51.224;22.506;2023-06-22T08:06:56;38.83;;;26.95;;
62401;SDS011;48440;51.224;22.506;2023-06-22T08:09:21;35.88;;;29.10;;
62401;SDS011;48440;51.224;22.506;2023-06-22T08:11:46;32.03;;;27.15;;
62401;SDS011;48440;51.224;22.506;2023-06-22T08:14:13;36.15;;;26.98;;
62401;SDS011;48440;51.224;22.506;2023-06-22T08:16:39;29.98;;;23.58;;
62401;SDS011;48440;51.224;22.506;2023-06-22T08:19:05;31.10;;;24.80;;
62401;SDS011;48440;51.224;22.506;2023-06-22T08:21:31;29.50;;;23.35;;
62401;SDS011;48440;51.224;22.506;2023-06-22T08:23:56;31.52;;;24.95;;
62401;SDS011;48440;51.224;22.506;2023-06-22T08:26:22;33.20;;;25.50;;
62401;SDS011;48440;51.224;22.506;2023-06-22T08:28:48;35.47;;;26.27;;
62401;SDS011;48440;51.224;22.506;2023-06-22T08:31:14;34.83;;;27.15;;
62401;SDS011;48440;51.224;22.506;2023-06-22T08:33:39;32.72;;;26.63;;
62401;SDS011;48440;51.224;22.506;2023-06-22T08:36:05;31.85;;;25.10;;
62401;SDS011;48440;51.224;22.506;2023-06-22T08:38:31;33.55;;;27.70;;
62401;SDS011;48440;51.224;22.506;2023-06-22T08:40:57;31.30;;;26.48;;
62401;SDS011;48440;51.224;22.506;2023-06-22T08:43:22;36.78;;;26.98;;
62401;SDS011;48440;51.224;22.506;2023-06-22T08:45:48;34.35;;;27.90;;
62401;SDS011;48440;51.224;22.506;2023-06-22T08:48:13;37.20;;;29.50;;
62401;SDS011;48440;51.224;22.506;2023-06-22T08:50:39;35.25;;;28.95;;
62401;SDS011;48440;51.224;22.506;2023-06-22T08:53:05;33.20;;;27.02;;
62401;SDS011;48440;51.224;22.506;2023-06-22T08:55:31;33.70;;;27.48;;
62401;SDS011;48440;51.224;22.506;2023-06-22T08:57:56;34.60;;;25.25;;
62401;SDS011;48440;51.224;22.506;2023-06-22T09:00:22;32.40;;;25.17;;
62401;SDS011;48440;51.224;22.506;2023-06-22T09:02:48;31.88;;;25.63;;
62401;SDS011;48440;51.224;22.506;2023-06-22T09:05:13;32.97;;;26.73;;
62401;SDS011;48440;51.224;22.506;2023-06-22T09:07:39;31.45;;;25.75;;
62401;SDS011;48440;51.224;22.506;2023-06-22T09:10:05;32.85;;;24.75;;
62401;SDS011;48440;51.224;22.506;2023-06-22T09:12:31;30.65;;;25.75;;
62401;SDS011;48440;51.224;22.506;2023-06-22T09:14:58;30.67;;;25.98;;
62401;SDS011;48440;51.224;22.506;2023-06-22T09:17:25;33.13;;;26.92;;
62401;SDS011;48440;51.224;22.506;2023-06-22T09:19:51;35.80;;;26.30;;
62401;SDS011;48440;51.224;22.506;2023-06-22T09:22:17;31.98;;;24.58;;
62401;SDS011;48440;51.224;22.506;2023-06-22T09:24:42;34.50;;;27.60;;
62401;SDS011;48440;51.224;22.506;2023-06-22T09:27:08;34.40;;;27.65;;
62401;SDS011;48440;51.224;22.506;2023-06-22T09:29:33;34.22;;;28.08;;
62401;SDS011;48440;51.224;22.506;2023-06-22T09:32:02;31.80;;;27.55;;
62401;SDS011;48440;51.224;22.506;2023-06-22T09:34:27;32.55;;;27.02;;
62401;SDS011;48440;51.224;22.506;2023-06-22T09:36:53;33.15;;;26.33;;
62401;SDS011;48440;51.224;22.506;2023-06-22T09:39:18;31.05;;;26.17;;
62401;SDS011;48440;51.224;22.506;2023-06-22T09:41:44;34.60;;;26.45;;
62401;SDS011;48440;51.224;22.506;2023-06-22T09:44:10;35.20;;;27.95;;
62401;SDS011;48440;51.224;22.506;2023-06-22T09:46:35;31.73;;;24.98;;
62401;SDS011;48440;51.224;22.506;2023-06-22T09:49:01;29.58;;;23.85;;
62401;SDS011;48440;51.224;22.506;2023-06-22T09:51:26;33.67;;;26.23;;
62401;SDS011;48440;51.224;22.506;2023-06-22T09:53:52;38.10;;;26.77;;
62401;SDS011;48440;51.224;22.506;2023-06-22T09:56:19;30.95;;;26.08;;
62401;SDS011;48440;51.224;22.506;2023-06-22T09:58:45;32.25;;;27.35;;
62401;SDS011;48440;51.224;22.506;2023-06-22T10:01:17;32.22;;;26.13;;
62401;SDS011;48440;51.224;22.506;2023-06-22T10:03:43;29.58;;;24.65;;
62401;SDS011;48440;51.224;22.506;2023-06-22T10:06:08;32.95;;;26.52;;
62401;SDS011;48440;51.224;22.506;2023-06-22T10:08:37;32.95;;;27.60;;
62401;SDS011;48440;51.224;22.506;2023-06-22T10:11:03;34.95;;;26.52;;
62401;SDS011;48440;51.224;22.506;2023-06-22T10:13:29;36.33;;;27.83;;
62401;SDS011;48440;51.224;22.506;2023-06-22T10:15:54;37.08;;;27.88;;
62401;SDS011;48440;51.224;22.506;2023-06-22T10:18:20;32.35;;;27.83;;
62401;SDS011;48440;51.224;22.506;2023-06-22T10:20:49;36.38;;;27.52;;
62401;SDS011;48440;51.224;22.506;2023-06-22T10:23:16;38.95;;;28.67;;
62401;SDS011;48440;51.224;22.506;2023-06-22T10:25:42;32.33;;;26.35;;
62401;SDS011;48440;51.224;22.506;2023-06-22T10:28:08;32.63;;;27.25;;
62401;SDS011;48440;51.224;22.506;2023-06-22T10:30:33;34.45;;;27.35;;
62401;SDS011;48440;51.224;22.506;2023-06-22T10:32:59;32.88;;;25.25;;
62401;SDS011;48440;51.224;22.506;2023-06-22T10:35:24;32.97;;;25.80;;
62401;SDS011;48440;51.224;22.506;2023-06-22T10:37:50;33.47;;;27.42;;
62401;SDS011;48440;51.224;22.506;2023-06-22T10:40:16;38.88;;;29.48;;
62401;SDS011;48440;51.224;22.506;2023-06-22T10:42:42;36.30;;;30.10;;
62401;SDS011;48440;51.224;22.506;2023-06-22T10:45:08;38.10;;;30.05;;
62401;SDS011;48440;51.224;22.506;2023-06-22T10:47:34;34.95;;;28.60;;
62401;SDS011;48440;51.224;22.506;2023-06-22T10:50:00;34.25;;;28.80;;
62401;SDS011;48440;51.224;22.506;2023-06-22T10:52:26;35.58;;;27.20;;
62401;SDS011;48440;51.224;22.506;2023-06-22T10:54:52;35.78;;;29.17;;
62401;SDS011;48440;51.224;22.506;2023-06-22T10:57:18;34.90;;;28.42;;
62401;SDS011;48440;51.224;22.506;2023-06-22T10:59:43;32.92;;;27.48;;
62401;SDS011;48440;51.224;22.506;2023-06-22T11:02:09;35.38;;;26.13;;
62401;SDS011;48440;51.224;22.506;2023-06-22T11:04:34;30.20;;;25.95;;
62401;SDS011;48440;51.224;22.506;2023-06-22T11:07:00;31.33;;;25.77;;
62401;SDS011;48440;51.224;22.506;2023-06-22T11:09:26;27.98;;;23.60;;
62401;SDS011;48440;51.224;22.506;2023-06-22T11:11:52;25.95;;;21.65;;
62401;SDS011;48440;51.224;22.506;2023-06-22T11:14:21;26.30;;;22.08;;
62401;SDS011;48440;51.224;22.506;2023-06-22T11:16:47;25.40;;;22.50;;
62401;SDS011;48440;51.224;22.506;2023-06-22T11:19:12;30.67;;;23.67;;
62401;SDS011;48440;51.224;22.506;2023-06-22T11:21:38;28.55;;;22.42;;
62401;SDS011;48440;51.224;22.506;2023-06-22T11:24:04;29.17;;;22.25;;
62401;SDS011;48440;51.224;22.506;2023-06-22T11:26:30;28.15;;;22.88;;
62401;SDS011;48440;51.224;22.506;2023-06-22T11:28:56;28.42;;;21.27;;
62401;SDS011;48440;51.224;22.506;2023-06-22T11:31:22;24.90;;;22.20;;
62401;SDS011;48440;51.224;22.506;2023-06-22T11:33:48;24.85;;;22.10;;
62401;SDS011;48440;51.224;22.506;2023-06-22T11:36:13;22.70;;;20.30;;
62401;SDS011;48440;51.224;22.506;2023-06-22T11:38:40;25.75;;;21.30;;
62401;SDS011;48440;51.224;22.506;2023-06-22T11:41:07;24.02;;;20.52;;
62401;SDS011;48440;51.224;22.506;2023-06-22T11:43:34;24.02;;;20.00;;
62401;SDS011;48440;51.224;22.506;2023-06-22T11:46:00;23.67;;;20.27;;
62401;SDS011;48440;51.224;22.506;2023-06-22T11:48:27;22.58;;;19.98;;
62401;SDS011;48440;51.224;22.506;2023-06-22T11:50:52;24.88;;;19.83;;
62401;SDS011;48440;51.224;22.506;2023-06-22T11:53:19;22.27;;;19.13;;
62401;SDS011;48440;51.224;22.506;2023-06-22T11:55:46;26.15;;;17.50;;
62401;SDS011;48440;51.224;22.506;2023-06-22T11:58:12;21.30;;;16.10;;
62401;SDS011;48440;51.224;22.506;2023-06-22T12:00:37;21.30;;;16.90;;
62401;SDS011;48440;51.224;22.506;2023-06-22T12:03:03;20.58;;;16.83;;
62401;SDS011;48440;51.224;22.506;2023-06-22T12:05:29;18.42;;;15.73;;
62401;SDS011;48440;51.224;22.506;2023-06-22T12:07:54;18.83;;;14.95;;
62401;SDS011;48440;51.224;22.506;2023-06-22T12:10:24;17.52;;;14.75;;
62401;SDS011;48440;51.224;22.506;2023-06-22T12:12:50;19.17;;;15.48;;
62401;SDS011;48440;51.224;22.506;2023-06-22T12:15:16;20.15;;;15.48;;
62401;SDS011;48440;51.224;22.506;2023-06-22T12:17:41;18.70;;;15.30;;
62401;SDS011;48440;51.224;22.506;2023-06-22T12:20:07;20.17;;;15.45;;
62401;SDS011;48440;51.224;22.506;2023-06-22T12:22:33;20.48;;;16.00;;
62401;SDS011;48440;51.224;22.506;2023-06-22T12:24:59;19.58;;;15.68;;
62401;SDS011;48440;51.224;22.506;2023-06-22T12:27:25;18.58;;;15.63;;
62401;SDS011;48440;51.224;22.506;2023-06-22T12:29:51;20.58;;;14.90;;
62401;SDS011;48440;51.224;22.506;2023-06-22T12:32:16;18.05;;;14.45;;
62401;SDS011;48440;51.224;22.506;2023-06-22T12:34:42;16.40;;;14.40;;
62401;SDS011;48440;51.224;22.506;2023-06-22T12:37:08;17.30;;;14.45;;
62401;SDS011;48440;51.224;22.506;2023-06-22T12:39:34;18.05;;;14.82;;
62401;SDS011;48440;51.224;22.506;2023-06-22T12:42:00;18.60;;;15.07;;
62401;SDS011;48440;51.224;22.506;2023-06-22T12:44:25;19.90;;;14.57;;
62401;SDS011;48440;51.224;22.506;2023-06-22T12:46:50;19.55;;;15.05;;
62401;SDS011;48440;51.224;22.506;2023-06-22T12:49:16;18.48;;;14.52;;
62401;SDS011;48440;51.224;22.506;2023-06-22T12:51:42;16.85;;;14.25;;
62401;SDS011;48440;51.224;22.506;2023-06-22T12:54:08;18.25;;;14.65;;
62401;SDS011;48440;51.224;22.506;2023-06-22T12:56:34;17.42;;;14.30;;
62401;SDS011;48440;51.224;22.506;2023-06-22T12:58:59;17.98;;;14.02;;
62401;SDS011;48440;51.224;22.506;2023-06-22T13:01:29;18.02;;;15.10;;
62401;SDS011;48440;51.224;22.506;2023-06-22T13:03:56;18.88;;;16.38;;
62401;SDS011;48440;51.224;22.506;2023-06-22T13:06:24;20.27;;;14.85;;
62401;SDS011;48440;51.224;22.506;2023-06-22T13:08:50;16.98;;;15.18;;
62401;SDS011;48440;51.224;22.506;2023-06-22T13:11:17;16.23;;;14.45;;
62401;SDS011;48440;51.224;22.506;2023-06-22T13:13:43;16.65;;;14.40;;
62401;SDS011;48440;51.224;22.506;2023-06-22T13:16:09;17.42;;;15.55;;
62401;SDS011;48440;51.224;22.506;2023-06-22T13:18:35;25.63;;;16.90;;
62401;SDS011;48440;51.224;22.506;2023-06-22T13:21:01;26.80;;;19.48;;
62401;SDS011;48440;51.224;22.506;2023-06-22T13:23:27;27.52;;;18.90;;
62401;SDS011;48440;51.224;22.506;2023-06-22T13:25:52;29.88;;;20.60;;
62401;SDS011;48440;51.224;22.506;2023-06-22T13:28:18;26.25;;;18.50;;
62401;SDS011;48440;51.224;22.506;2023-06-22T13:30:43;19.70;;;16.65;;
62401;SDS011;48440;51.224;22.506;2023-06-22T13:33:12;23.25;;;17.15;;
62401;SDS011;48440;51.224;22.506;2023-06-22T13:35:40;24.80;;;16.92;;
62401;SDS011;48440;51.224;22.506;2023-06-22T13:38:09;26.77;;;17.83;;
62401;SDS011;48440;51.224;22.506;2023-06-22T13:40:35;19.55;;;14.18;;
62401;SDS011;48440;51.224;22.506;2023-06-22T13:43:01;14.68;;;12.88;;
62401;SDS011;48440;51.224;22.506;2023-06-22T13:45:26;18.60;;;14.02;;
62401;SDS011;48440;51.224;22.506;2023-06-22T13:47:52;19.02;;;14.70;;
62401;SDS011;48440;51.224;22.506;2023-06-22T13:50:17;19.40;;;13.82;;
62401;SDS011;48440;51.224;22.506;2023-06-22T13:52:43;18.60;;;14.18;;
62401;SDS011;48440;51.224;22.506;2023-06-22T13:55:08;21.63;;;13.57;;
62401;SDS011;48440;51.224;22.506;2023-06-22T13:57:34;15.98;;;12.95;;
62401;SDS011;48440;51.224;22.506;2023-06-22T14:00:00;16.90;;;12.60;;
62401;SDS011;48440;51.224;22.506;2023-06-22T14:02:27;14.20;;;10.93;;
62401;SDS011;48440;51.224;22.506;2023-06-22T14:04:53;13.65;;;11.15;;
62401;SDS011;48440;51.224;22.506;2023-06-22T14:07:18;11.98;;;10.00;;
62401;SDS011;48440;51.224;22.506;2023-06-22T14:09:47;13.35;;;9.77;;
62401;SDS011;48440;51.224;22.506;2023-06-22T14:12:13;12.25;;;9.45;;
62401;SDS011;48440;51.224;22.506;2023-06-22T14:14:38;13.18;;;9.60;;
62401;SDS011;48440;51.224;22.506;2023-06-22T14:17:04;13.02;;;9.57;;